Fdny Mo 40 — WDG3980 — position and weather

sailwx.info

Track history (hours):
 
Tides and Currents Weather Stations Pressure Air Temp Water Temp Dewpoint Dewpoint Depression Visibility Wind Speed Wind Dir Waves Ship Positions

Fdny Mo 40

Owner: NEW YORK CITY FIRE DEPT, BROOKLYN, NY. More information available from US FCC via Universal Licensing System.

Last reported at 2018-Jun-16 20:46 UTC. Time now 2018-Jun-17 23:48 UTC.
Position N 40°42' W 073°58'.

Length 11 m.

Type: Law enforcement. MMSI: 367531680.

Date/timePositionNaut miles runAvg speedWind from/ knotsBaromVisibWave heightAir tempDewpointWater temp
2018-Jun-16 20:46N 40°42' W 073°58'2 8.0
2018-Jun-16 20:30N 40°43' W 074°01'0 0.0
2018-Jun-16 20:00N 40°43' W 074°01'0 0.0
2018-Jun-16 18:42N 40°43' W 074°01'3 9.4
2018-Jun-16 18:24N 40°46' W 074°00'512.0
2018-Jun-16 18:01N 40°41' W 074°01'3 0.1
2018-Jun-14 17:12N 40°42' W 073°58'312.9
2018-Jun-14 17:01N 40°41' W 074°01'4 7.9
2018-Jun-14 16:30N 40°38' W 074°04'0 0.0
2018-Jun-14 15:59N 40°38' W 074°04'612.9
2018-Jun-14 15:30N 40°43' W 074°01'1 2.0
2018-Jun-14 15:00N 40°44' W 074°01'2 3.5
2018-Jun-14 14:31N 40°43' W 074°01'2 4.2
2018-Jun-14 13:59N 40°42' W 073°58'0 0.0
2018-Jun-14 13:30N 40°42' W 073°58'  
2018-Jun-11 20:01N 40°42' W 073°58'213.2
2018-Jun-11 19:53N 40°42' W 074°00'1 2.9
2018-Jun-11 19:26N 40°40' W 074°01'0 0.0
2018-Jun-11 17:22N 40°40' W 074°01'  
Track history (hours):
 
Tides and Currents Weather Stations Pressure Air Temp Water Temp Dewpoint Dewpoint Depression Visibility Wind Speed Wind Dir Waves Ship Positions

Fdny Mo 40

Owner: NEW YORK CITY FIRE DEPT, BROOKLYN, NY. More information available from US FCC via Universal Licensing System.

Last reported at 2018-Jun-16 20:46 UTC. Time now 2018-Jun-17 23:48 UTC.
Position N 40°42' W 073°58'.

Length 11 m.

Type: Law enforcement. MMSI: 367531680.

Date/timePositionNaut miles runAvg speedWind from/ knotsBaromVisibWave heightAir tempDewpointWater temp
2018-Jun-16 20:46N 40°42' W 073°58'2 8.0
2018-Jun-16 20:30N 40°43' W 074°01'0 0.0
2018-Jun-16 20:00N 40°43' W 074°01'0 0.0
2018-Jun-16 18:42N 40°43' W 074°01'3 9.4
2018-Jun-16 18:24N 40°46' W 074°00'512.0
2018-Jun-16 18:01N 40°41' W 074°01'3 0.1
2018-Jun-14 17:12N 40°42' W 073°58'312.9
2018-Jun-14 17:01N 40°41' W 074°01'4 7.9
2018-Jun-14 16:30N 40°38' W 074°04'0 0.0
2018-Jun-14 15:59N 40°38' W 074°04'612.9
2018-Jun-14 15:30N 40°43' W 074°01'1 2.0
2018-Jun-14 15:00N 40°44' W 074°01'2 3.5
2018-Jun-14 14:31N 40°43' W 074°01'2 4.2
2018-Jun-14 13:59N 40°42' W 073°58'0 0.0
2018-Jun-14 13:30N 40°42' W 073°58'  
2018-Jun-11 20:01N 40°42' W 073°58'213.2
2018-Jun-11 19:53N 40°42' W 074°00'1 2.9
2018-Jun-11 19:26N 40°40' W 074°01'0 0.0
2018-Jun-11 17:22N 40°40' W 074°01'  

Dump ship's entire track history